sensor_id;sensor_type;location;lat;lon;timestamp;P1;durP1;ratioP1;P2;durP2;ratioP2
6947;SDS011;3513;47.664;9.162;2022-08-20T00:00:42;26.03;;;21.30;;
6947;SDS011;3513;47.664;9.162;2022-08-20T00:03:17;24.93;;;19.33;;
6947;SDS011;3513;47.664;9.162;2022-08-20T00:05:55;25.80;;;21.80;;
6947;SDS011;3513;47.664;9.162;2022-08-20T00:08:33;30.00;;;22.03;;
6947;SDS011;3513;47.664;9.162;2022-08-20T00:11:00;23.80;;;20.17;;
6947;SDS011;3513;47.664;9.162;2022-08-20T00:13:33;27.57;;;18.90;;
6947;SDS011;3513;47.664;9.162;2022-08-20T00:16:02;26.07;;;20.10;;
6947;SDS011;3513;47.664;9.162;2022-08-20T00:18:28;22.23;;;17.90;;
6947;SDS011;3513;47.664;9.162;2022-08-20T00:20:54;28.40;;;20.40;;
6947;SDS011;3513;47.664;9.162;2022-08-20T00:23:21;24.67;;;20.13;;
6947;SDS011;3513;47.664;9.162;2022-08-20T00:25:48;24.60;;;18.73;;
6947;SDS011;3513;47.664;9.162;2022-08-20T00:28:14;22.63;;;18.13;;
6947;SDS011;3513;47.664;9.162;2022-08-20T00:30:42;28.33;;;19.27;;
6947;SDS011;3513;47.664;9.162;2022-08-20T00:33:10;29.57;;;22.27;;
6947;SDS011;3513;47.664;9.162;2022-08-20T00:35:42;28.73;;;21.40;;
6947;SDS011;3513;47.664;9.162;2022-08-20T00:38:10;29.10;;;21.30;;
6947;SDS011;3513;47.664;9.162;2022-08-20T00:40:43;35.00;;;21.27;;
6947;SDS011;3513;47.664;9.162;2022-08-20T00:46:08;25.00;;;20.43;;
6947;SDS011;3513;47.664;9.162;2022-08-20T00:48:38;35.73;;;22.07;;
6947;SDS011;3513;47.664;9.162;2022-08-20T00:53:39;28.03;;;21.40;;
6947;SDS011;3513;47.664;9.162;2022-08-20T00:56:06;28.87;;;21.60;;
6947;SDS011;3513;47.664;9.162;2022-08-20T00:58:33;23.97;;;19.70;;
6947;SDS011;3513;47.664;9.162;2022-08-20T01:01:01;32.03;;;20.43;;
6947;SDS011;3513;47.664;9.162;2022-08-20T01:03:29;32.03;;;22.30;;
6947;SDS011;3513;47.664;9.162;2022-08-20T01:05:55;36.13;;;20.70;;
6947;SDS011;3513;47.664;9.162;2022-08-20T01:08:22;32.63;;;21.97;;
6947;SDS011;3513;47.664;9.162;2022-08-20T01:10:50;26.60;;;21.40;;
6947;SDS011;3513;47.664;9.162;2022-08-20T01:13:31;28.07;;;20.90;;
6947;SDS011;3513;47.664;9.162;2022-08-20T01:15:59;24.60;;;21.30;;
6947;SDS011;3513;47.664;9.162;2022-08-20T01:18:28;32.13;;;21.70;;
6947;SDS011;3513;47.664;9.162;2022-08-20T01:20:56;28.27;;;20.83;;
6947;SDS011;3513;47.664;9.162;2022-08-20T01:26:09;30.10;;;23.67;;
6947;SDS011;3513;47.664;9.162;2022-08-20T01:31:06;29.00;;;21.33;;
6947;SDS011;3513;47.664;9.162;2022-08-20T01:33:37;31.90;;;23.23;;
6947;SDS011;3513;47.664;9.162;2022-08-20T01:36:04;27.50;;;21.90;;
6947;SDS011;3513;47.664;9.162;2022-08-20T01:38:30;30.20;;;21.63;;
6947;SDS011;3513;47.664;9.162;2022-08-20T01:41:15;29.27;;;22.83;;
6947;SDS011;3513;47.664;9.162;2022-08-20T01:43:47;28.60;;;22.50;;
6947;SDS011;3513;47.664;9.162;2022-08-20T01:46:14;30.37;;;23.83;;
6947;SDS011;3513;47.664;9.162;2022-08-20T01:48:41;31.60;;;23.70;;
6947;SDS011;3513;47.664;9.162;2022-08-20T01:51:13;28.30;;;21.37;;
6947;SDS011;3513;47.664;9.162;2022-08-20T01:53:43;34.77;;;23.00;;
6947;SDS011;3513;47.664;9.162;2022-08-20T01:56:12;31.30;;;22.43;;
6947;SDS011;3513;47.664;9.162;2022-08-20T01:58:41;33.70;;;23.80;;
6947;SDS011;3513;47.664;9.162;2022-08-20T02:03:51;28.83;;;22.17;;
6947;SDS011;3513;47.664;9.162;2022-08-20T02:06:18;28.97;;;22.07;;
6947;SDS011;3513;47.664;9.162;2022-08-20T02:08:49;28.07;;;22.60;;
6947;SDS011;3513;47.664;9.162;2022-08-20T02:11:16;33.00;;;24.17;;
6947;SDS011;3513;47.664;9.162;2022-08-20T02:13:42;29.47;;;22.03;;
6947;SDS011;3513;47.664;9.162;2022-08-20T02:16:08;34.20;;;24.73;;
6947;SDS011;3513;47.664;9.162;2022-08-20T02:18:33;30.90;;;23.30;;
6947;SDS011;3513;47.664;9.162;2022-08-20T02:21:00;31.47;;;23.47;;
6947;SDS011;3513;47.664;9.162;2022-08-20T02:23:26;26.33;;;21.87;;
6947;SDS011;3513;47.664;9.162;2022-08-20T02:25:51;37.60;;;23.43;;
6947;SDS011;3513;47.664;9.162;2022-08-20T02:28:18;28.10;;;22.00;;
6947;SDS011;3513;47.664;9.162;2022-08-20T02:30:46;28.00;;;20.77;;
6947;SDS011;3513;47.664;9.162;2022-08-20T02:33:15;35.67;;;24.37;;
6947;SDS011;3513;47.664;9.162;2022-08-20T02:35:44;29.23;;;22.20;;
6947;SDS011;3513;47.664;9.162;2022-08-20T02:38:11;34.60;;;24.50;;
6947;SDS011;3513;47.664;9.162;2022-08-20T02:40:37;34.57;;;23.97;;
6947;SDS011;3513;47.664;9.162;2022-08-20T02:43:04;37.77;;;24.40;;
6947;SDS011;3513;47.664;9.162;2022-08-20T02:45:31;28.93;;;23.07;;
6947;SDS011;3513;47.664;9.162;2022-08-20T02:48:01;27.53;;;21.67;;
6947;SDS011;3513;47.664;9.162;2022-08-20T02:50:28;31.47;;;24.00;;
6947;SDS011;3513;47.664;9.162;2022-08-20T02:52:54;34.03;;;21.57;;
6947;SDS011;3513;47.664;9.162;2022-08-20T02:55:20;27.60;;;22.40;;
6947;SDS011;3513;47.664;9.162;2022-08-20T02:57:47;33.70;;;24.17;;
6947;SDS011;3513;47.664;9.162;2022-08-20T03:00:14;33.30;;;21.90;;
6947;SDS011;3513;47.664;9.162;2022-08-20T03:02:43;35.50;;;25.93;;
6947;SDS011;3513;47.664;9.162;2022-08-20T03:05:09;33.40;;;25.97;;
6947;SDS011;3513;47.664;9.162;2022-08-20T03:07:40;31.87;;;24.20;;
6947;SDS011;3513;47.664;9.162;2022-08-20T03:10:08;36.53;;;26.30;;
6947;SDS011;3513;47.664;9.162;2022-08-20T03:12:34;34.80;;;27.30;;
6947;SDS011;3513;47.664;9.162;2022-08-20T03:14:59;40.90;;;26.43;;
6947;SDS011;3513;47.664;9.162;2022-08-20T03:17:25;35.43;;;26.03;;
6947;SDS011;3513;47.664;9.162;2022-08-20T03:19:51;38.17;;;28.07;;
6947;SDS011;3513;47.664;9.162;2022-08-20T03:22:17;38.97;;;26.53;;
6947;SDS011;3513;47.664;9.162;2022-08-20T03:24:42;35.70;;;28.20;;
6947;SDS011;3513;47.664;9.162;2022-08-20T03:27:09;39.90;;;27.13;;
6947;SDS011;3513;47.664;9.162;2022-08-20T03:29:36;43.23;;;27.80;;
6947;SDS011;3513;47.664;9.162;2022-08-20T03:32:02;40.63;;;30.77;;
6947;SDS011;3513;47.664;9.162;2022-08-20T03:34:28;41.17;;;28.00;;
6947;SDS011;3513;47.664;9.162;2022-08-20T03:36:54;46.43;;;28.57;;
6947;SDS011;3513;47.664;9.162;2022-08-20T03:39:19;42.27;;;30.73;;
6947;SDS011;3513;47.664;9.162;2022-08-20T03:41:45;39.57;;;28.63;;
6947;SDS011;3513;47.664;9.162;2022-08-20T03:44:11;48.93;;;30.40;;
6947;SDS011;3513;47.664;9.162;2022-08-20T03:46:37;40.20;;;30.83;;
6947;SDS011;3513;47.664;9.162;2022-08-20T03:49:03;49.37;;;32.83;;
6947;SDS011;3513;47.664;9.162;2022-08-20T03:51:30;49.33;;;33.70;;
6947;SDS011;3513;47.664;9.162;2022-08-20T03:53:56;49.33;;;33.97;;
6947;SDS011;3513;47.664;9.162;2022-08-20T03:56:22;48.63;;;33.80;;
6947;SDS011;3513;47.664;9.162;2022-08-20T03:58:48;54.43;;;34.47;;
6947;SDS011;3513;47.664;9.162;2022-08-20T04:01:14;53.00;;;34.40;;
6947;SDS011;3513;47.664;9.162;2022-08-20T04:03:40;49.83;;;34.63;;
6947;SDS011;3513;47.664;9.162;2022-08-20T04:06:05;52.50;;;36.60;;
6947;SDS011;3513;47.664;9.162;2022-08-20T04:08:31;55.27;;;36.30;;
6947;SDS011;3513;47.664;9.162;2022-08-20T04:10:57;50.57;;;33.13;;
6947;SDS011;3513;47.664;9.162;2022-08-20T04:13:25;47.87;;;33.43;;
6947;SDS011;3513;47.664;9.162;2022-08-20T04:15:52;56.73;;;33.50;;
6947;SDS011;3513;47.664;9.162;2022-08-20T04:18:20;54.30;;;35.63;;
6947;SDS011;3513;47.664;9.162;2022-08-20T04:20:48;47.10;;;30.20;;
6947;SDS011;3513;47.664;9.162;2022-08-20T04:23:14;50.27;;;32.30;;
6947;SDS011;3513;47.664;9.162;2022-08-20T04:25:43;49.73;;;33.20;;
6947;SDS011;3513;47.664;9.162;2022-08-20T04:28:11;53.00;;;34.43;;
6947;SDS011;3513;47.664;9.162;2022-08-20T04:30:39;52.50;;;33.57;;
6947;SDS011;3513;47.664;9.162;2022-08-20T04:33:06;54.40;;;33.90;;
6947;SDS011;3513;47.664;9.162;2022-08-20T04:35:32;43.70;;;29.87;;
6947;SDS011;3513;47.664;9.162;2022-08-20T04:38:06;47.80;;;31.60;;
6947;SDS011;3513;47.664;9.162;2022-08-20T04:40:34;55.43;;;33.70;;
6947;SDS011;3513;47.664;9.162;2022-08-20T04:43:22;55.43;;;34.00;;
6947;SDS011;3513;47.664;9.162;2022-08-20T04:45:50;51.67;;;34.83;;
6947;SDS011;3513;47.664;9.162;2022-08-20T04:48:18;52.50;;;33.93;;
6947;SDS011;3513;47.664;9.162;2022-08-20T04:50:44;45.97;;;31.20;;
6947;SDS011;3513;47.664;9.162;2022-08-20T04:53:12;51.73;;;34.83;;
6947;SDS011;3513;47.664;9.162;2022-08-20T04:55:41;51.37;;;32.23;;
6947;SDS011;3513;47.664;9.162;2022-08-20T04:58:10;52.27;;;35.70;;
6947;SDS011;3513;47.664;9.162;2022-08-20T05:00:49;50.03;;;33.20;;
6947;SDS011;3513;47.664;9.162;2022-08-20T05:03:17;50.00;;;34.47;;
6947;SDS011;3513;47.664;9.162;2022-08-20T05:05:44;51.57;;;34.70;;
6947;SDS011;3513;47.664;9.162;2022-08-20T05:08:11;46.80;;;31.60;;
6947;SDS011;3513;47.664;9.162;2022-08-20T05:10:38;47.83;;;33.03;;
6947;SDS011;3513;47.664;9.162;2022-08-20T05:13:04;49.67;;;33.27;;
6947;SDS011;3513;47.664;9.162;2022-08-20T05:15:31;51.00;;;32.20;;
6947;SDS011;3513;47.664;9.162;2022-08-20T05:17:59;50.37;;;33.77;;
6947;SDS011;3513;47.664;9.162;2022-08-20T05:20:30;47.60;;;33.30;;
6947;SDS011;3513;47.664;9.162;2022-08-20T05:22:58;49.70;;;32.73;;
6947;SDS011;3513;47.664;9.162;2022-08-20T05:25:25;47.10;;;32.40;;
6947;SDS011;3513;47.664;9.162;2022-08-20T05:28:02;47.07;;;32.20;;
6947;SDS011;3513;47.664;9.162;2022-08-20T05:30:33;43.27;;;32.03;;
6947;SDS011;3513;47.664;9.162;2022-08-20T05:33:00;40.43;;;29.63;;
6947;SDS011;3513;47.664;9.162;2022-08-20T05:35:27;42.50;;;30.97;;
6947;SDS011;3513;47.664;9.162;2022-08-20T05:37:54;47.90;;;31.23;;
6947;SDS011;3513;47.664;9.162;2022-08-20T05:40:21;44.23;;;31.07;;
6947;SDS011;3513;47.664;9.162;2022-08-20T05:42:48;40.03;;;30.50;;
6947;SDS011;3513;47.664;9.162;2022-08-20T05:45:14;48.20;;;32.73;;
6947;SDS011;3513;47.664;9.162;2022-08-20T05:47:41;40.87;;;29.33;;
6947;SDS011;3513;47.664;9.162;2022-08-20T05:50:07;41.00;;;29.70;;
6947;SDS011;3513;47.664;9.162;2022-08-20T05:52:34;46.80;;;31.97;;
6947;SDS011;3513;47.664;9.162;2022-08-20T05:55:01;50.73;;;30.87;;
6947;SDS011;3513;47.664;9.162;2022-08-20T05:57:30;42.40;;;30.90;;
6947;SDS011;3513;47.664;9.162;2022-08-20T05:59:55;39.03;;;29.63;;
6947;SDS011;3513;47.664;9.162;2022-08-20T06:02:23;36.17;;;27.63;;
6947;SDS011;3513;47.664;9.162;2022-08-20T06:05:07;46.10;;;29.30;;
6947;SDS011;3513;47.664;9.162;2022-08-20T06:07:33;44.90;;;29.40;;
6947;SDS011;3513;47.664;9.162;2022-08-20T06:09:59;41.37;;;29.10;;
6947;SDS011;3513;47.664;9.162;2022-08-20T06:12:25;41.13;;;30.80;;
6947;SDS011;3513;47.664;9.162;2022-08-20T06:14:50;40.53;;;28.80;;
6947;SDS011;3513;47.664;9.162;2022-08-20T06:17:17;36.40;;;26.33;;
6947;SDS011;3513;47.664;9.162;2022-08-20T06:19:43;42.33;;;27.00;;
6947;SDS011;3513;47.664;9.162;2022-08-20T06:22:11;39.67;;;24.80;;
6947;SDS011;3513;47.664;9.162;2022-08-20T06:24:37;40.43;;;27.80;;
6947;SDS011;3513;47.664;9.162;2022-08-20T06:27:04;32.30;;;25.03;;
6947;SDS011;3513;47.664;9.162;2022-08-20T06:29:30;39.33;;;25.53;;
6947;SDS011;3513;47.664;9.162;2022-08-20T06:31:59;34.90;;;27.03;;
6947;SDS011;3513;47.664;9.162;2022-08-20T06:34:25;36.50;;;26.90;;
6947;SDS011;3513;47.664;9.162;2022-08-20T06:36:52;32.27;;;24.33;;
6947;SDS011;3513;47.664;9.162;2022-08-20T06:39:19;39.73;;;26.70;;
6947;SDS011;3513;47.664;9.162;2022-08-20T06:41:45;33.13;;;23.90;;
6947;SDS011;3513;47.664;9.162;2022-08-20T06:44:11;33.37;;;26.00;;
6947;SDS011;3513;47.664;9.162;2022-08-20T06:46:37;28.13;;;21.10;;
6947;SDS011;3513;47.664;9.162;2022-08-20T06:49:03;31.50;;;22.70;;
6947;SDS011;3513;47.664;9.162;2022-08-20T06:51:30;31.90;;;22.50;;
6947;SDS011;3513;47.664;9.162;2022-08-20T06:53:56;35.27;;;24.90;;
6947;SDS011;3513;47.664;9.162;2022-08-20T06:56:21;27.37;;;21.17;;
6947;SDS011;3513;47.664;9.162;2022-08-20T06:58:47;24.50;;;19.63;;
6947;SDS011;3513;47.664;9.162;2022-08-20T07:01:13;29.47;;;21.80;;
6947;SDS011;3513;47.664;9.162;2022-08-20T07:03:41;34.03;;;23.23;;
6947;SDS011;3513;47.664;9.162;2022-08-20T07:06:07;31.73;;;22.27;;
6947;SDS011;3513;47.664;9.162;2022-08-20T07:08:33;26.50;;;19.20;;
6947;SDS011;3513;47.664;9.162;2022-08-20T07:11:00;33.33;;;21.17;;
6947;SDS011;3513;47.664;9.162;2022-08-20T07:13:26;28.50;;;21.00;;
6947;SDS011;3513;47.664;9.162;2022-08-20T07:15:52;24.40;;;19.60;;
6947;SDS011;3513;47.664;9.162;2022-08-20T07:18:18;24.97;;;19.97;;
6947;SDS011;3513;47.664;9.162;2022-08-20T07:20:45;26.00;;;19.40;;
6947;SDS011;3513;47.664;9.162;2022-08-20T07:23:12;23.00;;;18.03;;
6947;SDS011;3513;47.664;9.162;2022-08-20T07:25:38;29.43;;;19.10;;
6947;SDS011;3513;47.664;9.162;2022-08-20T07:28:07;23.43;;;18.30;;
6947;SDS011;3513;47.664;9.162;2022-08-20T07:30:40;22.60;;;17.33;;
6947;SDS011;3513;47.664;9.162;2022-08-20T07:33:25;29.70;;;19.20;;
6947;SDS011;3513;47.664;9.162;2022-08-20T07:35:52;25.40;;;17.30;;
6947;SDS011;3513;47.664;9.162;2022-08-20T07:38:19;23.20;;;17.47;;
6947;SDS011;3513;47.664;9.162;2022-08-20T07:40:52;29.17;;;19.40;;
6947;SDS011;3513;47.664;9.162;2022-08-20T07:43:19;25.80;;;18.27;;
6947;SDS011;3513;47.664;9.162;2022-08-20T07:45:48;21.23;;;16.30;;
6947;SDS011;3513;47.664;9.162;2022-08-20T07:48:15;24.13;;;16.93;;
6947;SDS011;3513;47.664;9.162;2022-08-20T07:50:41;30.43;;;17.60;;
6947;SDS011;3513;47.664;9.162;2022-08-20T07:53:07;21.63;;;17.63;;
6947;SDS011;3513;47.664;9.162;2022-08-20T07:55:33;30.13;;;19.77;;
6947;SDS011;3513;47.664;9.162;2022-08-20T07:58:04;25.10;;;19.67;;
6947;SDS011;3513;47.664;9.162;2022-08-20T08:00:32;26.97;;;19.23;;
6947;SDS011;3513;47.664;9.162;2022-08-20T08:02:58;21.93;;;18.17;;
6947;SDS011;3513;47.664;9.162;2022-08-20T08:05:24;21.87;;;18.33;;
6947;SDS011;3513;47.664;9.162;2022-08-20T08:07:50;20.93;;;16.87;;
6947;SDS011;3513;47.664;9.162;2022-08-20T08:10:17;25.73;;;18.87;;
6947;SDS011;3513;47.664;9.162;2022-08-20T08:12:47;22.70;;;18.57;;
6947;SDS011;3513;47.664;9.162;2022-08-20T08:15:21;25.67;;;20.20;;
6947;SDS011;3513;47.664;9.162;2022-08-20T08:17:53;20.10;;;17.03;;
6947;SDS011;3513;47.664;9.162;2022-08-20T08:20:23;22.03;;;17.70;;
6947;SDS011;3513;47.664;9.162;2022-08-20T08:22:49;26.30;;;18.47;;
6947;SDS011;3513;47.664;9.162;2022-08-20T08:25:16;24.13;;;17.70;;
6947;SDS011;3513;47.664;9.162;2022-08-20T08:27:42;26.47;;;19.67;;
6947;SDS011;3513;47.664;9.162;2022-08-20T08:30:11;20.63;;;16.40;;
6947;SDS011;3513;47.664;9.162;2022-08-20T08:32:37;22.30;;;17.87;;
6947;SDS011;3513;47.664;9.162;2022-08-20T08:35:26;23.83;;;18.30;;
6947;SDS011;3513;47.664;9.162;2022-08-20T08:37:52;19.90;;;15.63;;
6947;SDS011;3513;47.664;9.162;2022-08-20T08:40:19;25.40;;;16.80;;
6947;SDS011;3513;47.664;9.162;2022-08-20T08:42:47;19.67;;;16.27;;
6947;SDS011;3513;47.664;9.162;2022-08-20T08:45:19;24.00;;;17.43;;
6947;SDS011;3513;47.664;9.162;2022-08-20T08:47:45;19.77;;;15.50;;
6947;SDS011;3513;47.664;9.162;2022-08-20T08:50:17;18.40;;;15.30;;
6947;SDS011;3513;47.664;9.162;2022-08-20T08:52:50;20.53;;;14.30;;
6947;SDS011;3513;47.664;9.162;2022-08-20T08:55:18;19.03;;;14.20;;
6947;SDS011;3513;47.664;9.162;2022-08-20T08:57:46;15.50;;;13.53;;
6947;SDS011;3513;47.664;9.162;2022-08-20T09:00:15;20.87;;;14.17;;
6947;SDS011;3513;47.664;9.162;2022-08-20T09:05:36;16.87;;;13.50;;
6947;SDS011;3513;47.664;9.162;2022-08-20T09:08:09;12.50;;;9.43;;
6947;SDS011;3513;47.664;9.162;2022-08-20T09:10:37;16.73;;;9.17;;
6947;SDS011;3513;47.664;9.162;2022-08-20T09:13:03;13.07;;;11.23;;
6947;SDS011;3513;47.664;9.162;2022-08-20T09:15:30;11.40;;;8.97;;
6947;SDS011;3513;47.664;9.162;2022-08-20T09:17:56;6.60;;;5.80;;
6947;SDS011;3513;47.664;9.162;2022-08-20T09:20:22;8.87;;;7.17;;
6947;SDS011;3513;47.664;9.162;2022-08-20T09:22:47;10.67;;;6.57;;
6947;SDS011;3513;47.664;9.162;2022-08-20T09:25:14;7.30;;;6.10;;
6947;SDS011;3513;47.664;9.162;2022-08-20T09:27:40;6.67;;;5.30;;
6947;SDS011;3513;47.664;9.162;2022-08-20T09:30:06;7.40;;;5.90;;
6947;SDS011;3513;47.664;9.162;2022-08-20T09:32:32;11.23;;;6.10;;
6947;SDS011;3513;47.664;9.162;2022-08-20T09:34:57;7.20;;;5.70;;
6947;SDS011;3513;47.664;9.162;2022-08-20T09:37:24;6.27;;;4.77;;
6947;SDS011;3513;47.664;9.162;2022-08-20T09:39:51;5.80;;;5.23;;
6947;SDS011;3513;47.664;9.162;2022-08-20T09:42:19;5.37;;;4.80;;
6947;SDS011;3513;47.664;9.162;2022-08-20T09:44:50;5.37;;;4.87;;
6947;SDS011;3513;47.664;9.162;2022-08-20T09:47:16;9.83;;;5.80;;
6947;SDS011;3513;47.664;9.162;2022-08-20T09:49:42;7.50;;;6.70;;
6947;SDS011;3513;47.664;9.162;2022-08-20T09:52:10;12.43;;;6.97;;
6947;SDS011;3513;47.664;9.162;2022-08-20T09:54:51;9.53;;;7.47;;
6947;SDS011;3513;47.664;9.162;2022-08-20T09:57:19;10.13;;;8.03;;
6947;SDS011;3513;47.664;9.162;2022-08-20T09:59:46;16.60;;;7.83;;
6947;SDS011;3513;47.664;9.162;2022-08-20T10:02:17;17.70;;;6.47;;
6947;SDS011;3513;47.664;9.162;2022-08-20T10:04:43;7.90;;;6.37;;
6947;SDS011;3513;47.664;9.162;2022-08-20T10:07:08;6.00;;;5.20;;
6947;SDS011;3513;47.664;9.162;2022-08-20T10:09:34;8.70;;;5.80;;
6947;SDS011;3513;47.664;9.162;2022-08-20T10:12:01;4.87;;;4.47;;
6947;SDS011;3513;47.664;9.162;2022-08-20T10:14:27;5.33;;;4.83;;
6947;SDS011;3513;47.664;9.162;2022-08-20T10:16:56;3.80;;;3.47;;
6947;SDS011;3513;47.664;9.162;2022-08-20T10:19:23;3.03;;;2.83;;
6947;SDS011;3513;47.664;9.162;2022-08-20T10:21:50;3.50;;;2.70;;
6947;SDS011;3513;47.664;9.162;2022-08-20T10:24:17;4.63;;;2.70;;
6947;SDS011;3513;47.664;9.162;2022-08-20T10:26:43;4.23;;;2.70;;
6947;SDS011;3513;47.664;9.162;2022-08-20T10:29:09;3.43;;;3.00;;
6947;SDS011;3513;47.664;9.162;2022-08-20T10:31:35;2.57;;;2.37;;
6947;SDS011;3513;47.664;9.162;2022-08-20T10:34:00;3.00;;;2.70;;
6947;SDS011;3513;47.664;9.162;2022-08-20T10:36:26;2.00;;;1.90;;
6947;SDS011;3513;47.664;9.162;2022-08-20T10:38:51;3.30;;;2.37;;
6947;SDS011;3513;47.664;9.162;2022-08-20T10:41:17;3.43;;;3.20;;
6947;SDS011;3513;47.664;9.162;2022-08-20T10:43:44;3.50;;;2.50;;
6947;SDS011;3513;47.664;9.162;2022-08-20T10:46:09;2.83;;;2.57;;
6947;SDS011;3513;47.664;9.162;2022-08-20T10:48:35;2.90;;;2.70;;
6947;SDS011;3513;47.664;9.162;2022-08-20T10:51:01;2.90;;;2.70;;
6947;SDS011;3513;47.664;9.162;2022-08-20T10:53:27;3.27;;;2.97;;
6947;SDS011;3513;47.664;9.162;2022-08-20T10:55:53;4.17;;;2.50;;
6947;SDS011;3513;47.664;9.162;2022-08-20T10:58:19;4.40;;;3.03;;
6947;SDS011;3513;47.664;9.162;2022-08-20T11:00:44;2.53;;;1.97;;
6947;SDS011;3513;47.664;9.162;2022-08-20T11:03:11;1.60;;;1.50;;
6947;SDS011;3513;47.664;9.162;2022-08-20T11:05:37;1.60;;;1.50;;
6947;SDS011;3513;47.664;9.162;2022-08-20T11:08:03;0.87;;;0.87;;
6947;SDS011;3513;47.664;9.162;2022-08-20T11:10:30;2.70;;;1.00;;
6947;SDS011;3513;47.664;9.162;2022-08-20T11:12:58;1.03;;;1.03;;
6947;SDS011;3513;47.664;9.162;2022-08-20T11:15:28;0.70;;;0.70;;
6947;SDS011;3513;47.664;9.162;2022-08-20T11:17:54;1.93;;;1.20;;
6947;SDS011;3513;47.664;9.162;2022-08-20T11:20:21;1.20;;;1.00;;
6947;SDS011;3513;47.664;9.162;2022-08-20T11:22:49;1.00;;;1.00;;
6947;SDS011;3513;47.664;9.162;2022-08-20T11:25:16;5.07;;;1.20;;
6947;SDS011;3513;47.664;9.162;2022-08-20T11:27:44;1.50;;;1.40;;
6947;SDS011;3513;47.664;9.162;2022-08-20T11:30:14;1.90;;;1.27;;
6947;SDS011;3513;47.664;9.162;2022-08-20T11:32:45;1.17;;;1.07;;
6947;SDS011;3513;47.664;9.162;2022-08-20T11:35:11;1.50;;;1.40;;
6947;SDS011;3513;47.664;9.162;2022-08-20T11:37:37;1.17;;;1.07;;
6947;SDS011;3513;47.664;9.162;2022-08-20T11:40:04;5.33;;;1.40;;
6947;SDS011;3513;47.664;9.162;2022-08-20T11:42:32;1.83;;;1.73;;
6947;SDS011;3513;47.664;9.162;2022-08-20T11:44:58;2.90;;;1.40;;
6947;SDS011;3513;47.664;9.162;2022-08-20T11:47:26;1.10;;;1.07;;
6947;SDS011;3513;47.664;9.162;2022-08-20T11:49:56;1.73;;;1.63;;
6947;SDS011;3513;47.664;9.162;2022-08-20T11:52:24;1.70;;;1.23;;
6947;SDS011;3513;47.664;9.162;2022-08-20T11:54:51;1.77;;;1.20;;
6947;SDS011;3513;47.664;9.162;2022-08-20T11:57:20;1.70;;;1.60;;
6947;SDS011;3513;47.664;9.162;2022-08-20T11:59:50;1.50;;;1.40;;
6947;SDS011;3513;47.664;9.162;2022-08-20T12:02:18;1.50;;;1.40;;
6947;SDS011;3513;47.664;9.162;2022-08-20T12:04:44;1.50;;;1.40;;
6947;SDS011;3513;47.664;9.162;2022-08-20T12:07:12;2.00;;;1.90;;
6947;SDS011;3513;47.664;9.162;2022-08-20T12:09:41;2.13;;;1.93;;
6947;SDS011;3513;47.664;9.162;2022-08-20T12:12:08;1.30;;;1.20;;
6947;SDS011;3513;47.664;9.162;2022-08-20T12:14:34;2.03;;;1.57;;
6947;SDS011;3513;47.664;9.162;2022-08-20T12:17:07;1.70;;;1.60;;
6947;SDS011;3513;47.664;9.162;2022-08-20T12:19:38;1.33;;;1.23;;
6947;SDS011;3513;47.664;9.162;2022-08-20T12:22:05;1.87;;;1.50;;
6947;SDS011;3513;47.664;9.162;2022-08-20T12:24:32;1.50;;;1.40;;
6947;SDS011;3513;47.664;9.162;2022-08-20T12:27:10;1.57;;;1.43;;
6947;SDS011;3513;47.664;9.162;2022-08-20T12:29:39;1.23;;;1.13;;
6947;SDS011;3513;47.664;9.162;2022-08-20T12:32:06;1.60;;;1.40;;
6947;SDS011;3513;47.664;9.162;2022-08-20T12:34:33;1.00;;;0.90;;
6947;SDS011;3513;47.664;9.162;2022-08-20T12:37:00;2.50;;;1.20;;
6947;SDS011;3513;47.664;9.162;2022-08-20T12:39:33;1.47;;;1.37;;
6947;SDS011;3513;47.664;9.162;2022-08-20T12:41:59;1.67;;;1.57;;
6947;SDS011;3513;47.664;9.162;2022-08-20T12:44:27;1.07;;;1.00;;
6947;SDS011;3513;47.664;9.162;2022-08-20T12:47:10;1.10;;;1.00;;
6947;SDS011;3513;47.664;9.162;2022-08-20T12:49:41;2.40;;;1.53;;
6947;SDS011;3513;47.664;9.162;2022-08-20T12:52:10;10.40;;;1.60;;
6947;SDS011;3513;47.664;9.162;2022-08-20T12:54:36;1.30;;;1.20;;
6947;SDS011;3513;47.664;9.162;2022-08-20T12:57:02;1.60;;;1.30;;
6947;SDS011;3513;47.664;9.162;2022-08-20T12:59:29;1.50;;;1.40;;
6947;SDS011;3513;47.664;9.162;2022-08-20T13:01:55;1.80;;;1.37;;
6947;SDS011;3513;47.664;9.162;2022-08-20T13:04:21;2.73;;;1.23;;
6947;SDS011;3513;47.664;9.162;2022-08-20T13:06:47;1.33;;;1.27;;
6947;SDS011;3513;47.664;9.162;2022-08-20T13:09:13;0.83;;;0.83;;
6947;SDS011;3513;47.664;9.162;2022-08-20T13:11:39;2.40;;;1.17;;
6947;SDS011;3513;47.664;9.162;2022-08-20T13:14:05;1.60;;;1.50;;
6947;SDS011;3513;47.664;9.162;2022-08-20T13:16:30;1.30;;;1.20;;
6947;SDS011;3513;47.664;9.162;2022-08-20T13:18:56;2.20;;;1.30;;
6947;SDS011;3513;47.664;9.162;2022-08-20T13:21:22;2.20;;;1.03;;
6947;SDS011;3513;47.664;9.162;2022-08-20T13:23:47;0.97;;;0.87;;
6947;SDS011;3513;47.664;9.162;2022-08-20T13:26:13;1.50;;;1.30;;
6947;SDS011;3513;47.664;9.162;2022-08-20T13:28:39;1.47;;;1.33;;
6947;SDS011;3513;47.664;9.162;2022-08-20T13:31:04;1.57;;;1.10;;
6947;SDS011;3513;47.664;9.162;2022-08-20T13:33:30;1.47;;;1.20;;
6947;SDS011;3513;47.664;9.162;2022-08-20T13:35:56;1.50;;;1.40;;
6947;SDS011;3513;47.664;9.162;2022-08-20T13:38:22;1.77;;;1.20;;
6947;SDS011;3513;47.664;9.162;2022-08-20T13:40:48;1.53;;;1.00;;
6947;SDS011;3513;47.664;9.162;2022-08-20T13:43:14;1.50;;;1.40;;
6947;SDS011;3513;47.664;9.162;2022-08-20T13:45:40;1.30;;;0.90;;
6947;SDS011;3513;47.664;9.162;2022-08-20T13:48:06;1.07;;;1.00;;
6947;SDS011;3513;47.664;9.162;2022-08-20T13:50:31;3.07;;;1.00;;
6947;SDS011;3513;47.664;9.162;2022-08-20T13:52:57;1.30;;;1.20;;
6947;SDS011;3513;47.664;9.162;2022-08-20T13:55:24;1.70;;;0.90;;
6947;SDS011;3513;47.664;9.162;2022-08-20T13:57:51;1.43;;;1.33;;
6947;SDS011;3513;47.664;9.162;2022-08-20T14:00:20;0.73;;;0.73;;
6947;SDS011;3513;47.664;9.162;2022-08-20T14:02:53;0.83;;;0.83;;
6947;SDS011;3513;47.664;9.162;2022-08-20T14:05:19;1.67;;;1.57;;
6947;SDS011;3513;47.664;9.162;2022-08-20T14:07:46;4.53;;;1.10;;
6947;SDS011;3513;47.664;9.162;2022-08-20T14:10:17;1.00;;;0.90;;
6947;SDS011;3513;47.664;9.162;2022-08-20T14:12:46;1.03;;;0.93;;
6947;SDS011;3513;47.664;9.162;2022-08-20T14:15:12;1.60;;;1.03;;
6947;SDS011;3513;47.664;9.162;2022-08-20T14:17:39;1.53;;;1.00;;
6947;SDS011;3513;47.664;9.162;2022-08-20T14:20:13;3.43;;;1.00;;
6947;SDS011;3513;47.664;9.162;2022-08-20T14:22:40;1.97;;;0.90;;
6947;SDS011;3513;47.664;9.162;2022-08-20T14:25:07;4.20;;;1.40;;
6947;SDS011;3513;47.664;9.162;2022-08-20T14:27:35;3.53;;;1.20;;
6947;SDS011;3513;47.664;9.162;2022-08-20T14:30:02;3.80;;;0.90;;
6947;SDS011;3513;47.664;9.162;2022-08-20T14:32:29;0.80;;;0.80;;
6947;SDS011;3513;47.664;9.162;2022-08-20T14:34:54;1.70;;;1.27;;
6947;SDS011;3513;47.664;9.162;2022-08-20T14:37:24;8.60;;;1.77;;
6947;SDS011;3513;47.664;9.162;2022-08-20T14:39:55;7.43;;;1.80;;
6947;SDS011;3513;47.664;9.162;2022-08-20T14:42:23;1.73;;;1.03;;
6947;SDS011;3513;47.664;9.162;2022-08-20T14:44:50;2.20;;;1.10;;
6947;SDS011;3513;47.664;9.162;2022-08-20T14:47:17;2.13;;;0.80;;
6947;SDS011;3513;47.664;9.162;2022-08-20T14:49:47;2.00;;;1.00;;
6947;SDS011;3513;47.664;9.162;2022-08-20T14:52:13;1.57;;;0.80;;
6947;SDS011;3513;47.664;9.162;2022-08-20T14:54:40;1.93;;;0.90;;
6947;SDS011;3513;47.664;9.162;2022-08-20T14:57:06;1.33;;;0.73;;
6947;SDS011;3513;47.664;9.162;2022-08-20T14:59:32;3.90;;;1.20;;
6947;SDS011;3513;47.664;9.162;2022-08-20T15:01:58;3.23;;;1.17;;
6947;SDS011;3513;47.664;9.162;2022-08-20T15:04:25;1.60;;;1.10;;
6947;SDS011;3513;47.664;9.162;2022-08-20T15:06:51;1.10;;;1.00;;
6947;SDS011;3513;47.664;9.162;2022-08-20T15:09:17;8.23;;;1.27;;
6947;SDS011;3513;47.664;9.162;2022-08-20T15:11:42;3.00;;;1.20;;
6947;SDS011;3513;47.664;9.162;2022-08-20T15:14:08;1.07;;;0.90;;
6947;SDS011;3513;47.664;9.162;2022-08-20T15:16:34;0.93;;;0.83;;